createdAt,value
2022-10-01T00:03:01.717Z,14.86
2022-10-01T00:06:11.420Z,14.83
2022-10-01T00:09:13.845Z,14.90
2022-10-01T00:12:16.758Z,14.96
2022-10-01T00:15:21.821Z,14.76
2022-10-01T00:18:24.363Z,14.76
2022-10-01T00:21:30.117Z,14.84
2022-10-01T00:24:32.605Z,14.59
2022-10-01T00:27:36.030Z,14.80
2022-10-01T00:30:40.509Z,14.72
2022-10-01T00:33:43.498Z,14.70
2022-10-01T00:36:45.960Z,14.63
2022-10-01T00:39:48.338Z,14.62
2022-10-01T00:42:50.863Z,14.56
2022-10-01T00:45:57.547Z,14.60
2022-10-01T00:49:10.494Z,14.65
2022-10-01T00:52:18.310Z,14.65
2022-10-01T00:55:34.161Z,14.60
2022-10-01T00:58:36.603Z,14.56
2022-10-01T01:01:39.468Z,14.63
2022-10-01T01:04:43.295Z,14.37
2022-10-01T01:07:49.640Z,14.46
2022-10-01T01:11:13.956Z,14.43
2022-10-01T01:14:30.067Z,14.39
2022-10-01T01:17:40.530Z,14.43
2022-10-01T01:21:04.753Z,14.53
2022-10-01T01:24:31.484Z,14.33
2022-10-01T01:27:54.782Z,14.47
2022-10-01T01:31:01.361Z,14.15
2022-10-01T01:34:08.598Z,14.02
2022-10-01T01:37:14.744Z,13.97
2022-10-01T01:40:19.515Z,14.09
2022-10-01T01:43:29.520Z,14.18
2022-10-01T01:46:36.321Z,14.12
2022-10-01T01:49:39.722Z,14.01
2022-10-01T01:52:42.188Z,14.18
2022-10-01T01:55:46.019Z,14.12
2022-10-01T01:58:49.240Z,14.25
2022-10-01T02:01:56.617Z,14.29
2022-10-01T02:05:10.499Z,14.40
2022-10-01T02:08:30.886Z,14.43
2022-10-01T02:11:40.687Z,14.43
2022-10-01T02:14:51.472Z,14.39
2022-10-01T02:18:05.059Z,14.11
2022-10-01T02:21:16.881Z,13.95
2022-10-01T02:24:33.280Z,14.19
2022-10-01T02:27:40.869Z,14.24
2022-10-01T02:30:45.175Z,14.33
2022-10-01T02:33:48.992Z,14.45
2022-10-01T02:36:53.514Z,14.46
2022-10-01T02:39:57.657Z,14.49
2022-10-01T02:43:07.728Z,14.46
2022-10-01T02:46:45.431Z,14.52
2022-10-01T02:49:49.107Z,14.32
2022-10-01T02:53:09.759Z,14.50
2022-10-01T02:56:14.850Z,14.55
2022-10-01T02:59:17.231Z,14.47
2022-10-01T03:02:20.204Z,14.55
2022-10-01T03:05:22.708Z,14.47
2022-10-01T03:08:25.174Z,14.55
2022-10-01T03:11:27.585Z,14.55
2022-10-01T03:14:30.016Z,14.56
2022-10-01T03:17:32.440Z,14.65
2022-10-01T03:20:34.852Z,14.60
2022-10-01T03:23:37.250Z,14.62
2022-10-01T03:26:39.758Z,14.57
2022-10-01T03:29:43.294Z,14.66
2022-10-01T03:32:47.708Z,14.69
2022-10-01T03:35:51.034Z,14.73
2022-10-01T03:38:53.556Z,14.39
2022-10-01T03:41:56.000Z,14.33
2022-10-01T03:44:58.414Z,14.30
2022-10-01T03:48:00.815Z,14.33
2022-10-01T03:51:03.514Z,14.30
2022-10-01T03:54:06.998Z,14.36
2022-10-01T03:57:09.167Z,14.18
2022-10-01T04:00:13.989Z,14.09
2022-10-01T04:03:16.720Z,14.12
2022-10-01T04:06:19.407Z,13.94
2022-10-01T04:09:21.587Z,13.91
2022-10-01T04:12:23.784Z,13.94
2022-10-01T04:15:26.164Z,14.11
2022-10-01T04:18:28.595Z,14.22
2022-10-01T04:21:31.166Z,14.30
2022-10-01T04:24:36.547Z,14.25
2022-10-01T04:27:43.044Z,14.28
2022-10-01T04:30:46.297Z,14.28
2022-10-01T04:33:48.696Z,14.25
2022-10-01T04:36:50.856Z,14.28
2022-10-01T04:39:53.268Z,14.26
2022-10-01T04:42:55.476Z,14.21
2022-10-01T04:45:57.725Z,14.15
2022-10-01T04:49:01.100Z,14.22
2022-10-01T04:52:04.224Z,14.21
2022-10-01T04:55:09.620Z,14.35
2022-10-01T04:58:11.791Z,14.32
2022-10-01T05:01:13.995Z,14.36
2022-10-01T05:04:16.208Z,14.37
2022-10-01T05:07:19.455Z,14.39
2022-10-01T05:10:23.053Z,14.29
2022-10-01T05:13:30.372Z,14.30
2022-10-01T05:16:33.037Z,14.37
2022-10-01T05:19:35.257Z,14.53
2022-10-01T05:22:37.961Z,14.56
2022-10-01T05:25:40.550Z,14.67
2022-10-01T05:28:44.658Z,14.75
2022-10-01T05:31:49.446Z,14.73
2022-10-01T05:34:53.711Z,14.84
2022-10-01T05:38:00.563Z,14.77
2022-10-01T05:41:05.856Z,14.90
2022-10-01T05:44:08.066Z,14.90
2022-10-01T05:47:10.247Z,14.75
2022-10-01T05:50:18.699Z,14.84
2022-10-01T05:53:22.384Z,14.93
2022-10-01T05:56:26.138Z,14.94
2022-10-01T05:59:31.681Z,14.97
2022-10-01T06:02:34.363Z,15.17
2022-10-01T06:05:36.928Z,15.35
2022-10-01T06:08:39.128Z,15.28
2022-10-01T06:11:42.111Z,15.54
2022-10-01T06:14:44.272Z,15.76
2022-10-01T06:17:46.923Z,15.88
2022-10-01T06:20:49.108Z,16.26
2022-10-01T06:23:52.327Z,16.89
2022-10-01T06:26:54.478Z,17.04
2022-10-01T06:29:56.715Z,17.12
2022-10-01T06:33:11.617Z,16.99
2022-10-01T06:36:13.809Z,17.60
2022-10-01T06:39:16.059Z,18.01
2022-10-01T06:42:18.232Z,18.62
2022-10-01T06:45:20.435Z,18.73
2022-10-01T06:48:22.956Z,18.49
2022-10-01T06:51:45.073Z,18.14
2022-10-01T06:54:47.293Z,18.11
2022-10-01T06:57:54.865Z,17.76
2022-10-01T07:01:01.455Z,17.67
2022-10-01T07:04:03.805Z,17.47
2022-10-01T07:07:07.258Z,17.36
2022-10-01T07:10:10.691Z,17.35
2022-10-01T07:13:20.914Z,17.16
2022-10-01T07:16:23.304Z,17.15
2022-10-01T07:19:25.518Z,16.98
2022-10-01T07:22:27.819Z,16.87
2022-10-01T07:25:30.083Z,16.85
2022-10-01T07:28:32.235Z,16.71
2022-10-01T07:31:34.818Z,16.84
2022-10-01T07:34:42.583Z,17.29
2022-10-01T07:37:44.773Z,17.63
2022-10-01T07:40:54.786Z,17.52
2022-10-01T07:43:57.636Z,17.45
2022-10-01T07:47:00.235Z,17.52
2022-10-01T07:50:02.616Z,17.53
2022-10-01T07:53:04.788Z,17.63
2022-10-01T07:56:06.971Z,17.76
2022-10-01T07:59:10.730Z,18.00
2022-10-01T08:02:17.726Z,18.18
2022-10-01T08:05:22.012Z,18.61
2022-10-01T08:08:24.228Z,19.70
2022-10-01T08:11:26.441Z,19.92
2022-10-01T08:14:30.308Z,20.13
2022-10-01T08:17:34.247Z,19.74
2022-10-01T08:20:39.358Z,20.29
2022-10-01T08:23:41.553Z,19.78
2022-10-01T08:26:43.854Z,20.59
2022-10-01T08:29:46.008Z,20.50
2022-10-01T08:32:48.246Z,21.20
2022-10-01T08:35:50.729Z,21.48
2022-10-01T08:38:52.943Z,21.03
2022-10-01T08:42:15.109Z,21.55
2022-10-01T08:45:43.151Z,24.51
2022-10-01T08:49:09.747Z,25.23
2022-10-01T08:52:26.341Z,26.72
2022-10-01T08:55:36.303Z,25.75
2022-10-01T08:58:45.749Z,25.30
2022-10-01T09:01:49.170Z,25.00
2022-10-01T09:05:04.091Z,24.52
2022-10-01T09:08:09.662Z,23.88
2022-10-01T09:11:21.775Z,23.71
2022-10-01T09:14:30.147Z,23.79
2022-10-01T09:17:54.578Z,23.81
2022-10-01T09:20:58.690Z,23.63
2022-10-01T09:24:04.672Z,23.46
2022-10-01T09:27:25.509Z,23.05
2022-10-01T09:30:29.264Z,22.65
2022-10-01T09:33:35.308Z,22.02
2022-10-01T09:37:05.541Z,21.86
2022-10-01T09:40:34.222Z,21.63
2022-10-01T09:43:41.050Z,21.46
2022-10-01T09:46:46.159Z,21.37
2022-10-01T09:49:50.080Z,21.08
2022-10-01T09:52:53.702Z,20.79
2022-10-01T09:56:05.094Z,20.62
2022-10-01T09:59:21.262Z,20.37
2022-10-01T10:02:28.624Z,20.12
2022-10-01T10:05:41.882Z,19.85
2022-10-01T10:08:45.550Z,20.11
2022-10-01T10:11:49.152Z,20.19
2022-10-01T10:14:51.367Z,20.12
2022-10-01T10:17:55.784Z,20.09
2022-10-01T10:20:59.364Z,20.12
2022-10-01T10:24:04.569Z,20.08
2022-10-01T10:27:21.744Z,20.19
2022-10-01T10:30:24.810Z,20.18
2022-10-01T10:33:27.390Z,20.26
2022-10-01T10:36:32.743Z,19.98
2022-10-01T10:39:37.851Z,19.82
2022-10-01T10:42:47.915Z,19.84
2022-10-01T10:45:56.917Z,20.06
2022-10-01T10:49:07.526Z,20.11
2022-10-01T10:52:36.856Z,20.35
2022-10-01T10:55:39.187Z,20.46
2022-10-01T10:58:42.540Z,20.57
2022-10-01T11:01:47.419Z,20.54
2022-10-01T11:04:50.058Z,20.63
2022-10-01T11:07:56.439Z,20.70
2022-10-01T11:11:17.213Z,20.74
2022-10-01T11:14:37.572Z,20.77
2022-10-01T11:18:16.289Z,20.53
2022-10-01T11:21:22.189Z,20.72
2022-10-01T11:24:42.364Z,20.64
2022-10-01T11:28:15.664Z,20.59
2022-10-01T11:31:36.266Z,20.46
2022-10-01T11:34:55.708Z,20.39
2022-10-01T11:38:09.663Z,20.21
2022-10-01T11:41:19.182Z,20.08
2022-10-01T11:44:39.397Z,20.18
2022-10-01T11:47:47.380Z,20.05
2022-10-01T11:50:53.143Z,19.96
2022-10-01T11:54:03.844Z,19.84
2022-10-01T11:57:33.092Z,19.47
2022-10-01T12:00:38.475Z,19.26
2022-10-01T12:04:01.260Z,19.09
2022-10-01T12:07:20.586Z,19.19
2022-10-01T12:11:13.205Z,19.17
2022-10-01T12:14:38.521Z,18.99
2022-10-01T12:17:49.152Z,18.83
2022-10-01T12:20:57.640Z,18.72
2022-10-01T12:24:20.609Z,18.65
2022-10-01T12:27:48.037Z,18.42
2022-10-01T12:30:58.988Z,18.31
2022-10-01T12:34:04.172Z,18.27
2022-10-01T12:37:12.871Z,18.38
2022-10-01T12:40:27.997Z,18.31
2022-10-01T12:43:42.171Z,18.24
2022-10-01T12:46:50.327Z,18.25
2022-10-01T12:50:20.561Z,18.11
2022-10-01T12:53:45.330Z,18.17
2022-10-01T12:57:11.511Z,18.35
2022-10-01T13:00:19.414Z,18.52
2022-10-01T13:03:31.829Z,18.82
2022-10-01T13:06:56.805Z,19.09
2022-10-01T13:10:20.034Z,19.55
2022-10-01T13:13:32.931Z,19.95
2022-10-01T13:16:45.315Z,20.01
2022-10-01T13:19:55.283Z,20.29
2022-10-01T13:23:25.861Z,20.43
2022-10-01T13:26:53.776Z,20.86
2022-10-01T13:30:16.532Z,20.63
2022-10-01T13:33:24.564Z,23.81
2022-10-01T13:36:33.944Z,26.25
2022-10-01T13:39:39.487Z,27.92
2022-10-01T13:42:45.972Z,28.46
2022-10-01T13:45:53.031Z,28.57
2022-10-01T13:48:56.070Z,29.26
2022-10-01T13:51:59.070Z,27.86
2022-10-01T13:55:02.203Z,28.43
2022-10-01T13:58:05.699Z,29.02
2022-10-01T14:01:28.995Z,29.70
2022-10-01T14:04:43.572Z,28.74
2022-10-01T14:07:50.325Z,26.31
2022-10-01T14:11:28.121Z,24.34
2022-10-01T14:14:58.391Z,24.24
2022-10-01T14:18:06.341Z,24.49
2022-10-01T14:21:28.529Z,25.03
2022-10-01T14:24:39.681Z,27.30
2022-10-01T14:27:44.766Z,28.19
2022-10-01T14:30:53.017Z,28.01
2022-10-01T14:33:55.198Z,26.91
2022-10-01T14:36:58.099Z,27.04
2022-10-01T14:40:21.893Z,26.93
2022-10-01T14:43:27.678Z,27.77
2022-10-01T14:46:30.089Z,27.52
2022-10-01T14:49:33.343Z,27.03
2022-10-01T14:52:37.572Z,26.84
2022-10-01T14:55:39.784Z,26.08
2022-10-01T14:58:46.412Z,26.50
2022-10-01T15:02:01.403Z,26.96
2022-10-01T15:05:26.160Z,25.78
2022-10-01T15:08:45.737Z,25.30
2022-10-01T15:11:51.139Z,25.27
2022-10-01T15:14:54.296Z,25.06
2022-10-01T15:17:56.507Z,24.21
2022-10-01T15:21:00.129Z,23.63
2022-10-01T15:24:04.581Z,23.25
2022-10-01T15:27:11.656Z,22.78
2022-10-01T15:30:18.371Z,22.14
2022-10-01T15:33:46.900Z,21.28
2022-10-01T15:36:50.041Z,20.93
2022-10-01T15:39:53.848Z,20.57
2022-10-01T15:43:07.959Z,20.35
2022-10-01T15:46:22.218Z,20.19
2022-10-01T15:49:24.993Z,20.15
2022-10-01T15:52:46.428Z,20.01
2022-10-01T15:55:52.392Z,19.79
2022-10-01T15:59:10.044Z,19.75
2022-10-01T16:02:20.064Z,19.58
2022-10-01T16:05:26.681Z,19.37
2022-10-01T16:08:34.428Z,19.22
2022-10-01T16:11:56.707Z,19.13
2022-10-01T16:15:00.648Z,19.10
2022-10-01T16:18:02.878Z,18.96
2022-10-01T16:21:06.571Z,18.86
2022-10-01T16:24:29.392Z,18.72
2022-10-01T16:27:34.439Z,18.66
2022-10-01T16:30:51.310Z,18.65
2022-10-01T16:33:53.478Z,18.49
2022-10-01T16:36:55.694Z,18.40
2022-10-01T16:39:57.860Z,18.37
2022-10-01T16:43:00.810Z,18.34
2022-10-01T16:46:03.059Z,18.21
2022-10-01T16:49:12.185Z,18.15
2022-10-01T16:52:16.678Z,18.12
2022-10-01T16:55:23.081Z,18.04
2022-10-01T16:58:25.357Z,17.91
2022-10-01T17:01:28.768Z,17.91
2022-10-01T17:04:34.122Z,17.89
2022-10-01T17:07:36.405Z,17.81
2022-10-01T17:10:53.725Z,17.79
2022-10-01T17:13:56.140Z,17.80
2022-10-01T17:16:58.413Z,17.80
2022-10-01T17:20:00.697Z,17.74
2022-10-01T17:23:03.063Z,17.65
2022-10-01T17:26:07.326Z,17.63
2022-10-01T17:29:09.943Z,17.59
2022-10-01T17:32:12.380Z,17.59
2022-10-01T17:35:16.715Z,17.54
2022-10-01T17:38:19.568Z,17.52
2022-10-01T17:41:21.781Z,17.47
2022-10-01T17:44:23.937Z,17.47
2022-10-01T17:47:26.152Z,17.43
2022-10-01T17:50:28.352Z,17.45
2022-10-01T17:53:36.158Z,17.40
2022-10-01T17:56:44.205Z,17.40
2022-10-01T17:59:46.438Z,17.39
2022-10-01T18:02:48.687Z,17.29
2022-10-01T18:05:51.982Z,17.28
2022-10-01T18:08:55.990Z,17.29
2022-10-01T18:11:58.760Z,17.22
2022-10-01T18:15:01.594Z,17.19
2022-10-01T18:21:27.694Z,17.19
2022-10-01T18:24:30.108Z,17.16
2022-10-01T18:27:35.526Z,17.12
2022-10-01T18:30:37.788Z,17.15
2022-10-01T18:33:55.151Z,17.16
2022-10-01T18:37:26.569Z,17.08
2022-10-01T18:40:36.709Z,17.08
2022-10-01T18:43:40.721Z,17.18
2022-10-01T18:46:49.676Z,17.15
2022-10-01T18:50:03.034Z,17.11
2022-10-01T18:53:19.466Z,17.12
2022-10-01T18:56:31.778Z,17.08
2022-10-01T18:59:52.338Z,17.12
2022-10-01T19:03:17.064Z,17.20
2022-10-01T19:06:22.192Z,17.19
2022-10-01T19:09:51.959Z,17.29
2022-10-01T19:13:13.871Z,17.45
2022-10-01T19:16:16.096Z,17.52
2022-10-01T19:19:21.217Z,17.59
2022-10-01T19:22:45.073Z,17.53
2022-10-01T19:26:09.851Z,17.53
2022-10-01T19:29:22.212Z,17.50
2022-10-01T19:32:29.347Z,17.39
2022-10-01T19:35:38.032Z,17.30
2022-10-01T19:38:42.416Z,17.19
2022-10-01T19:41:51.566Z,17.08
2022-10-01T19:45:04.710Z,17.02
2022-10-01T19:48:42.179Z,16.94
2022-10-01T19:51:56.038Z,16.84
2022-10-01T19:55:00.745Z,16.87
2022-10-01T19:58:13.887Z,16.82
2022-10-01T20:01:20.789Z,16.70
2022-10-01T20:04:35.403Z,16.63
2022-10-01T20:08:14.712Z,16.68
2022-10-01T20:11:31.014Z,16.68
2022-10-01T20:15:12.536Z,16.71
2022-10-01T20:18:14.755Z,16.65
2022-10-01T20:21:28.712Z,16.71
2022-10-01T20:24:58.978Z,16.64
2022-10-01T20:28:19.363Z,16.61
2022-10-01T20:31:29.699Z,16.56
2022-10-01T20:35:02.420Z,16.37
2022-10-01T20:38:15.105Z,16.40
2022-10-01T20:41:20.284Z,16.27
2022-10-01T20:44:29.185Z,16.24
2022-10-01T20:47:46.716Z,16.05
2022-10-01T20:50:54.459Z,16.00
2022-10-01T20:54:12.440Z,15.86
2022-10-01T20:57:33.943Z,15.83
2022-10-01T21:00:38.391Z,15.66
2022-10-01T21:03:44.444Z,15.65
2022-10-01T21:06:54.965Z,15.54
2022-10-01T21:10:03.769Z,15.48
2022-10-01T21:13:21.684Z,15.38
2022-10-01T21:16:45.943Z,15.32
2022-10-01T21:20:06.489Z,15.38
2022-10-01T21:23:22.568Z,15.32
2022-10-01T21:26:41.443Z,15.34
2022-10-01T21:30:11.076Z,15.47
2022-10-01T21:33:19.348Z,15.47
2022-10-01T21:36:25.828Z,15.42
2022-10-01T21:39:48.322Z,15.48
2022-10-01T21:42:53.121Z,15.35
2022-10-01T21:46:22.471Z,15.34
2022-10-01T21:49:58.081Z,15.41
2022-10-01T21:53:34.108Z,15.37
2022-10-01T21:56:59.921Z,15.45
2022-10-01T22:00:28.642Z,15.39
2022-10-01T22:03:38.560Z,15.35
2022-10-01T22:06:51.277Z,15.41
2022-10-01T22:10:14.754Z,15.27
2022-10-01T22:13:28.023Z,15.28
2022-10-01T22:16:40.992Z,15.27
2022-10-01T22:19:49.072Z,15.18
2022-10-01T22:22:57.321Z,15.12
2022-10-01T22:26:06.273Z,15.12
2022-10-01T22:29:18.924Z,15.07
2022-10-01T22:32:23.437Z,15.04
2022-10-01T22:35:30.963Z,14.96
2022-10-01T22:38:40.396Z,14.84
2022-10-01T22:41:47.437Z,14.79
2022-10-01T22:44:49.609Z,14.62
2022-10-01T22:48:33.764Z,14.65
2022-10-01T22:51:58.743Z,14.62
2022-10-01T22:55:25.663Z,14.73
2022-10-01T22:58:43.822Z,14.60
2022-10-01T23:02:00.617Z,14.56
2022-10-01T23:05:11.222Z,14.49
2022-10-01T23:08:31.299Z,14.49
2022-10-01T23:11:38.973Z,14.39
2022-10-01T23:14:55.876Z,14.26
2022-10-01T23:18:24.874Z,14.22
2022-10-01T23:21:45.813Z,14.21
2022-10-01T23:25:16.334Z,14.06
2022-10-01T23:28:45.413Z,13.88
2022-10-01T23:32:13.138Z,13.91
2022-10-01T23:36:01.087Z,13.77
2022-10-01T23:39:37.556Z,13.63
2022-10-01T23:42:45.910Z,13.64
2022-10-01T23:45:56.724Z,13.47
2022-10-01T23:49:28.172Z,13.03
2022-10-01T23:52:47.383Z,12.88
2022-10-01T23:56:20.025Z,12.75
2022-10-01T23:59:40.393Z,12.85
